Terminal Aerodrome Forecast
Issued by NWS

Home | Current Version | Previous Version | Text Only | Print | Product List | Glossary On
Versions: 1 2 3 4 5 6 7 8 9 10 11 12 13 14 15 16 17 18 19 20 21 22 23
598
FTUS43 KPAH 251129
TAFCGI
TAF
KCGI 251129Z 2512/2612 17012G19KT P6SM -SHRA SCT040 BKN080
     FM251600 17015G24KT P6SM VCSH BKN035
      TEMPO 2520/2524 3SM -TSRA BR OVC030CB
     FM260000 19006KT P6SM BKN050=

USA.gov is the U.S. government's official web portal to all federal, state and local government web resources and services.